Flight Track Log - Related Links

Times and Time Zones

All times are in EDT time to prevent confusion due to time zone crossing. See the N412GJ flight status page for this flight to view local times or setup timezone preferences in your user account.

Time Position Orientation Groundspeed Altitude Reporting Facility
EDT Latitude Longitude Course Direction KTS MPH feet Rate Location/Type
Mon 12:26:53 PM 39.8833 -75.2000 72° East 161 185 600  Level Philadelphia TRACON
Mon 12:28:35 PM 39.9167 -75.0667 72° East 285 328 3,400 1,991 Climbing Philadelphia TRACON
Mon 12:30:00 PM 39.7815 -75.1266 270° West  Level Estimated
Mon 12:30:36 PM 40.0167 -75.0667 270° West 254 292 8,000  Level Philadelphia TRACON
Mon 12:31:36 PM 40.0000 -75.1500 255° West 238 274 10,000 1,000 Climbing Philadelphia TRACON
Mon 12:32:36 PM 39.9833 -75.2500 258° West 312 359 10,000 50 Level Philadelphia TRACON
Mon 12:33:36 PM 39.9500 -75.3500 247° West 300 345 10,100 757 Climbing Philadelphia TRACON
Mon 12:34:27 PM 39.9317 -75.4353 254° West 316 364 11,400 1,018 Climbing New York Center
Mon 12:35:28 PM 39.9047 -75.5364 251° West 316 364 12,000 500 Climbing New York Center
Mon 12:36:27 PM 39.8800 -75.6292 251° West 316 364 12,400 1,563 Climbing New York Center
Mon 12:37:27 PM 39.8525 -75.7408 252° West 300 345 15,100 2,182 Climbing New York Center
Mon 12:38:28 PM 39.8217 -75.8253 245° Southwest 295 339 16,800 1,587 Climbing New York Center
Mon 12:39:28 PM 39.7728 -75.9000 230° Southwest 283 326 18,300 1,438 Climbing New York Center
Mon 12:40:29 PM 39.7164 -75.9931 232° Southwest 297 342 19,700 1,190 Climbing New York Center
Mon 12:41:29 PM 39.6644 -76.0811 233° Southwest 302 348 20,700 1,039 Climbing New York Center
Mon 12:43:00 PM 39.5533 -76.2133 218° Southwest  Level FlightAware Approximate
Mon 12:43:28 PM 39.5953 -76.2753 218° Southwest 322 371 22,800  Level New York Center
Mon 12:44:32 PM 39.5983 -76.4183 272° West 330 380 24,400 1,440 Climbing Washington Center
Mon 12:45:33 PM 39.5581 -76.5203 243° Southwest 316 364 25,800 1,240 Climbing Washington Center
Mon 12:46:33 PM 39.5114 -76.6217 239° Southwest 321 369 26,900 1,077 Climbing Washington Center
Mon 12:47:30 PM 39.4667 -76.7206 240° Southwest 332 382 27,900 966 Climbing Washington Center
Mon 12:48:31 PM 39.4178 -76.8219 238° Southwest 332 382 28,800 951 Climbing Washington Center
Mon 12:50:33 PM 39.3236 -77.0322 240° Southwest 337 388 30,800 1,000 Climbing Washington Center
Mon 12:51:31 PM 39.2808 -77.1386 243° Southwest 337 388 31,800 972 Climbing Washington Center
Mon 12:53:00 PM 39.1440 -77.2043 209° Southwest  Level FlightAware Approximate
Mon 12:53:32 PM 39.1800 -77.3372 209° Southwest 337 388 33,700  Level Washington Center
Mon 12:54:32 PM 39.1225 -77.4297 231° Southwest 337 388 34,700 958 Climbing Washington Center
Mon 12:55:31 PM 39.0525 -77.4947 216° Southwest 332 382 35,600 706 Climbing Washington Center
Mon 12:56:31 PM 38.9786 -77.5597 214° Southwest 324 373 36,100 492 Climbing Washington Center
Mon 12:57:33 PM 38.9272 -77.6408 231° Southwest 329 379 36,600 496 Climbing Washington Center
Mon 12:58:32 PM 38.8628 -77.7431 231° Southwest 342 394 37,100 504 Climbing Washington Center
Mon 12:59:32 PM 38.8092 -77.8322 232° Southwest 354 407 37,600 446 Climbing Washington Center
Mon 01:00:33 PM 38.7489 -77.9289 231° Southwest 355 409 38,000 464 Climbing Washington Center
Mon 01:02:00 PM 38.6098 -77.9585 218° Southwest  Level Estimated
Mon 01:02:33 PM 38.6108 -78.0653 218° Southwest 328 377 39,000  Level Washington Center
Mon 01:04:00 PM 38.4827 -78.1405 205° Southwest  Level FlightAware Approximate
Mon 01:04:32 PM 38.4581 -78.1847 205° Southwest 328 377 40,000  Level Washington Center
Mon 01:05:33 PM 38.3817 -78.2456 212° Southwest 328 377 40,000  Level Washington Center
Mon 01:06:31 PM 38.3011 -78.3036 209° Southwest 328 377 40,000  Level Washington Center
Mon 01:07:31 PM 38.2225 -78.3669 212° Southwest 328 377 40,000  Level Washington Center
Mon 01:09:00 PM 38.0939 -78.4371 203° Southwest  Level FlightAware Approximate
Mon 01:09:33 PM 38.0611 -78.4900 203° Southwest 333 383 40,000  Level Washington Center
Mon 01:10:31 PM 37.9783 -78.5528 211° Southwest 333 383 40,000  Level Washington Center
Mon 01:11:32 PM 37.9036 -78.6131 212° Southwest 340 391 40,000  Level Washington Center
Mon 01:12:33 PM 37.8250 -78.6703 210° Southwest 340 391 40,000  Level Washington Center
Mon 01:13:32 PM 37.7444 -78.7300 210° Southwest 340 391 40,000  Level Washington Center
Mon 01:14:32 PM 37.6614 -78.7922 211° Southwest 340 391 40,000  Level Washington Center
Mon 01:16:00 PM 37.5416 -78.8810 210° Southwest  Level FlightAware Approximate
Mon 01:17:32 PM 37.4058 -78.9778 210° Southwest 340 391 40,000  Level Washington Center
Mon 01:18:33 PM 37.3228 -79.0419 212° Southwest 340 391 40,000  Level Washington Center
Mon 01:19:31 PM 37.2417 -79.1033 211° Southwest 340 391 40,000  Level Washington Center
Mon 01:20:31 PM 37.1650 -79.1572 209° Southwest 340 391 40,000  Level Washington Center
Mon 01:21:32 PM 37.0839 -79.2161 210° Southwest 340 391 40,000  Level Washington Center
Mon 01:22:31 PM 37.0047 -79.2772 212° Southwest 340 391 40,000  Level Washington Center
Mon 01:23:31 PM 36.9236 -79.3383 211° Southwest 340 391 40,000  Level Washington Center
Mon 01:24:32 PM 36.8425 -79.3967 210° Southwest 340 391 40,000  Level Washington Center
Mon 01:25:32 PM 36.7528 -79.4622 210° Southwest 340 391 40,000  Level Washington Center
Mon 01:26:32 PM 36.6736 -79.5206 211° Southwest 340 391 40,000  Level Washington Center
Mon 01:27:33 PM 36.5903 -79.5808 210° Southwest 340 391 40,000  Level Washington Center
Mon 01:28:31 PM 36.5111 -79.6389 211° Southwest 340 391 40,000  Level Washington Center
Mon 01:30:00 PM 36.3885 -79.7240 209° Southwest  Level FlightAware Approximate
Mon 01:30:28 PM 36.3403 -79.7575 209° Southwest 344 396 40,000  Level Atlanta Center
Mon 01:31:28 PM 36.2753 -79.8075 212° Southwest 331 381 40,000  Level Atlanta Center
Mon 01:32:28 PM 36.1939 -79.8656 210° Southwest 336 387 40,000  Level Atlanta Center
Mon 01:33:28 PM 36.1103 -79.9239 209° Southwest 342 394 40,000  Level Atlanta Center
Mon 01:34:28 PM 36.0206 -79.9850 209° Southwest 342 394 40,000  Level Atlanta Center
Mon 01:35:28 PM 35.9322 -80.0278 201° Southwest 342 394 40,000  Level Atlanta Center
Mon 01:36:28 PM 35.8439 -80.0733 203° Southwest 342 394 40,000  Level Atlanta Center
Mon 01:37:28 PM 35.7581 -80.1208 204° Southwest 342 394 40,000  Level Atlanta Center
Mon 01:38:28 PM 35.6758 -80.1606 201° Southwest 347 399 40,000  Level Atlanta Center
Mon 01:39:28 PM 35.5894 -80.2056 203° Southwest 347 399 40,000  Level Atlanta Center
Mon 01:40:28 PM 35.4931 -80.2533 202° Southwest 347 399 40,000  Level Atlanta Center
Mon 01:41:28 PM 35.4047 -80.2983 203° Southwest 347 399 40,000  Level Atlanta Center
Mon 01:42:28 PM 35.3142 -80.3431 202° Southwest 347 399 40,000  Level Atlanta Center
Mon 01:43:28 PM 35.2258 -80.3853 201° Southwest 347 399 40,000  Level Atlanta Center
Mon 01:45:39 PM 35.0275 -80.4844 202° Southwest 353 406 40,000  Level Jacksonville Center
Mon 01:46:39 PM 34.9367 -80.5275 201° Southwest 353 406 40,000  Level Jacksonville Center
Mon 01:47:39 PM 34.8478 -80.5731 203° Southwest 348 400 40,000  Level Jacksonville Center
Mon 01:48:39 PM 34.7672 -80.6181 205° Southwest 342 394 40,000 -50 Level Jacksonville Center
Mon 01:49:39 PM 34.6761 -80.6583 200° South 342 394 39,900  Descending Jacksonville Center
Mon 01:50:39 PM 34.5811 -80.7061 202° Southwest 372 428 40,000 50 Climbing Jacksonville Center
Mon 01:51:39 PM 34.4900 -80.7514 202° Southwest 372 428 40,000  Level Jacksonville Center
Mon 01:52:39 PM 34.3989 -80.7939 201° Southwest 360 414 40,000  Level Jacksonville Center
Mon 01:53:40 PM 34.3081 -80.8389 202° Southwest 355 409 40,000  Level Jacksonville Center
Mon 01:54:39 PM 34.2211 -80.8836 203° Southwest 348 400 40,000 -50 Level Jacksonville Center
Mon 01:55:39 PM 34.1300 -80.9283 202° Southwest 348 400 39,900  Descending Jacksonville Center
Mon 01:56:39 PM 34.0367 -80.9731 202° Southwest 354 407 40,000 50 Climbing Jacksonville Center
Mon 01:57:39 PM 33.9475 -81.0150 201° Southwest 354 407 40,000  Level Jacksonville Center
Mon 01:58:39 PM 33.8439 -81.0522 197° South 354 407 40,000  Level Jacksonville Center
Mon 01:59:39 PM 33.7647 -81.0614 185° South 354 407 40,000  Level Jacksonville Center
Mon 02:01:39 PM 33.5500 -81.0858 185° South 370 426 40,000  Level Jacksonville Center
Mon 02:02:39 PM 33.4458 -81.0928 183° South 370 426 40,000  Level Jacksonville Center
Mon 02:03:39 PM 33.3478 -81.1022 185° South 365 420 40,000  Level Jacksonville Center
Mon 02:04:39 PM 33.2478 -81.1117 185° South 365 420 40,000  Level Jacksonville Center
Mon 02:05:39 PM 33.1456 -81.1186 183° South 370 426 40,000  Level Jacksonville Center
Mon 02:06:39 PM 33.0436 -81.1281 184° South 365 420 40,000  Level Jacksonville Center
Mon 02:07:39 PM 32.9433 -81.1350 183° South 365 420 40,000  Level Jacksonville Center
Mon 02:08:39 PM 32.8414 -81.1444 184° South 365 420 40,000  Level Jacksonville Center
Mon 02:09:40 PM 32.7369 -81.1539 184° South 370 426 40,000  Level Jacksonville Center
Mon 02:10:39 PM 32.6286 -81.1633 184° South 370 426 40,000  Level Jacksonville Center
Mon 02:11:40 PM 32.5328 -81.1728 185° South 370 426 40,000  Level Jacksonville Center
Mon 02:12:39 PM 32.4200 -81.1822 184° South 370 426 40,000  Level Jacksonville Center
Mon 02:13:39 PM 32.3178 -81.1864 182° South 388 447 40,000  Level Jacksonville Center
Mon 02:14:39 PM 32.2133 -81.1639 170° South 388 447 40,000  Level Jacksonville Center
Mon 02:15:39 PM 32.1083 -81.1389 169° South 388 447 40,000  Level Jacksonville Center
Mon 02:16:39 PM 32.0017 -81.1139 169° South 388 447 40,000  Level Jacksonville Center
Mon 02:17:39 PM 31.8969 -81.0939 171° South 388 447 40,000  Level Jacksonville Center
Mon 02:18:39 PM 31.7842 -81.0914 179° South 378 435 40,000  Level Jacksonville Center
Mon 02:19:39 PM 31.6903 -81.0931 181° South 376 433 40,000  Level Jacksonville Center
Mon 02:20:40 PM 31.5775 -81.0928 180° South 376 433 40,000  Level Jacksonville Center
Mon 02:21:39 PM 31.4711 -81.0950 181° South 382 440 40,000  Level Jacksonville Center
Mon 02:22:39 PM 31.3772 -81.0942 180° South 382 440 40,000  Level Jacksonville Center
Mon 02:23:39 PM 31.2703 -81.0719 170° South 387 445 40,000  Level Jacksonville Center
Mon 02:24:39 PM 31.1656 -81.0450 168° South 387 445 40,000  Level Jacksonville Center
Mon 02:25:39 PM 31.0608 -81.0178 167° South 387 445 40,000  Level Jacksonville Center
Mon 02:26:39 PM 30.9558 -80.9908 168° South 392 451 40,000  Level Jacksonville Center
Mon 02:27:39 PM 30.8533 -80.9664 168° South 392 451 40,000  Level Jacksonville Center
Mon 02:28:39 PM 30.7483 -80.9394 168° South 392 451 40,000  Level Jacksonville Center
Mon 02:29:39 PM 30.6436 -80.9128 168° South 387 445 40,000  Level Jacksonville Center
Mon 02:30:39 PM 30.5389 -80.8858 168° South 387 445 40,000  Level Jacksonville Center
Mon 02:31:39 PM 30.4342 -80.8617 169° South 392 451 40,000  Level Jacksonville Center
Mon 02:32:39 PM 30.3272 -80.8350 168° South 392 451 40,000  Level Jacksonville Center
Mon 02:33:40 PM 30.2222 -80.8083 168° South 392 451 40,000  Level Jacksonville Center
Mon 02:35:39 PM 30.0086 -80.7553 168° South 392 451 40,000  Level Jacksonville Center
Mon 02:37:39 PM 29.7928 -80.7050 169° South 392 451 40,000  Level Jacksonville Center
Mon 02:38:39 PM 29.6836 -80.6789 168° South 392 451 40,000  Level Jacksonville Center
Mon 02:39:39 PM 29.5767 -80.6528 168° South 392 451 40,000  Level Jacksonville Center
Mon 02:40:39 PM 29.4614 -80.6219 167° South 392 451 40,000  Level Jacksonville Center
Mon 02:41:39 PM 29.3503 -80.5958 168° South 392 451 40,000  Level Jacksonville Center
Mon 02:42:39 PM 29.2433 -80.5722 169° South 397 457 40,000  Level Jacksonville Center
Mon 02:44:51 PM 28.9969 -80.5106 168° South 398 458 40,000  Level Miami Center
Mon 02:45:51 PM 28.8892 -80.4811 167° South 397 457 40,000  Level Miami Center
Mon 02:46:51 PM 28.7794 -80.4536 168° South 397 457 40,000  Level Miami Center
Mon 02:47:51 PM 28.6822 -80.4222 164° South 402 463 40,000  Level Miami Center
Mon 02:48:51 PM 28.5881 -80.3411 143° Southeast 409 471 40,000  Level Miami Center
Mon 02:49:51 PM 28.4944 -80.2414 137° Southeast 414 476 40,000  Level Miami Center
Mon 02:50:51 PM 28.4089 -80.1514 137° Southeast 420 483 40,000  Level Miami Center
Mon 02:51:51 PM 28.3125 -80.0828 148° Southeast 415 478 40,000  Level Miami Center
Mon 02:52:51 PM 28.2150 -80.0539 165° South 400 460 40,000 -350 Level Miami Center
Mon 02:53:51 PM 28.1117 -80.0064 158° South 405 466 39,300 -1,450 Descending Miami Center
Mon 02:54:51 PM 28.0453 -79.8964 124° Southeast 396 456 37,100 -2,000 Descending Miami Center
Mon 02:55:51 PM 27.9744 -79.7886 127° Southeast 406 467 35,300 -1,650 Descending Miami Center
Mon 02:56:51 PM 27.8906 -79.6947 135° Southeast 417 480 33,800 -1,650 Descending Miami Center
Mon 02:57:51 PM 27.7744 -79.6567 164° South 402 463 32,000 -1,900 Descending Miami Center
Mon 02:58:51 PM 27.6592 -79.6772 189° South 408 470 30,000 -2,100 Descending Miami Center
Mon 02:59:51 PM 27.5333 -79.7142 195° South 416 479 27,800 -2,100 Descending Miami Center
Mon 03:00:51 PM 27.4158 -79.7439 193° South 432 497 25,800 -1,950 Descending Miami Center
Mon 03:01:51 PM 27.2964 -79.7642 189° South 437 503 23,900 -2,100 Descending Miami Center
Mon 03:02:51 PM 27.1922 -79.7406 169° South 422 486 21,600 -2,250 Descending Miami Center
Mon 03:03:51 PM 27.0761 -79.7075 166° South 404 465 19,400 -2,050 Descending Miami Center
Mon 03:04:51 PM 26.9786 -79.6769 164° South 375 432 17,500 -1,900 Descending Miami Center
Mon 03:05:51 PM 26.8789 -79.6492 166° South 367 422 15,600 -1,700 Descending Miami Center
Mon 03:06:51 PM 26.7972 -79.6589 186° South 344 396 14,100 -1,550 Descending Miami Center
Mon 03:07:51 PM 26.7064 -79.7053 205° Southwest 338 389 12,500 -1,400 Descending Miami Center
Mon 03:08:51 PM 26.6411 -79.7342 202° Southwest 297 342 11,300 -1,200 Descending Miami Center
Mon 03:10:00 PM 26.5374 -79.7697 201° Southwest  Level FlightAware Approximate
Mon 03:10:51 PM 26.4997 -79.8025 201° Southwest 279 321 8,900  Level Miami Center
Mon 03:11:22 PM 26.4533 -79.8247 203° Southwest 278 320 8,300 -522 Descending Miami Center
Mon 03:12:23 PM 26.3858 -79.8600 205° Southwest 253 291 8,100 -98 Descending Miami Center
Mon 03:13:24 PM 26.3283 -79.9119 219° Southwest 268 308 8,100  Level Miami Center
Mon 03:14:25 PM 26.2686 -79.9683 220° Southwest 271 312 8,100  Level Miami Center
Mon 03:15:26 PM 26.2111 -80.0222 220° Southwest 275 316 8,100 -656 Level Miami Center
Mon 03:16:33 PM 26.1633 -80.1044 237° Southwest 280 322 6,700 -1,377 Descending Miami Center
Mon 03:17:28 PM 26.1494 -80.1733 257° West 257 296 5,300 -1,279 Descending Miami Center
Mon 03:18:35 PM 26.1536 -80.2569 273° West 234 269 4,100 -563 Descending Miami Center
Mon 03:19:36 PM 26.1581 -80.3311 274° West 236 272 4,100  Level Miami Center
Mon 03:20:37 PM 26.1192 -80.3856 232° Southwest 215 247 4,100 -750 Level Miami Center
Mon 03:21:44 PM 26.0681 -80.4278 217° Southwest 203 234 2,500 -1,125 Descending Miami Center
Mon 03:22:45 PM 26.0139 -80.4261 178° South 197 227 1,700 -393 Descending Miami Center
Mon 03:23:46 PM 25.9642 -80.4086 162° South 160 184 1,700 -148 Level Miami Center
Mon 03:24:47 PM 25.9272 -80.3797 145° Southeast 166 191 1,400 -472 Descending Miami Center
Mon 03:25:53 PM 25.9094 -80.3331 113° Southeast 128 147 700 -636 Descending Miami Center
Mon 03:28:00 PM 25.9074 -80.2782 114° Southeast  Level Estimated
Mon 03:35:00 PM 25.9074 -80.2782 114° Southeast  Level Estimated

Login

Don't have an account? Register now (free) for customized features, flight alerts, and more!